Time;durP1;ratioP1;P1;durP2;ratioP2;P2;SDS_P1;SDS_P2;PMS_P1;PMS_P2;Temp;Humidity;BMP_temperature;BMP_pressure;BME280_temperature;BME280_humidity;BME280_pressure;Samples;Min_cycle;Max_cycle;Signal;HPM_P1;HPM_P2
2022/04/08 00:00:39;;;;;;;3.73;1.20;;;6.30;99.90;;;;;;4114465;28;20276;-73
2022/04/08 00:02:41;;;;;;;3.73;1.43;;;6.30;99.90;;;;;;4115837;28;20198;-73
2022/04/08 00:04:41;;;;;;;3.93;1.77;;;6.30;99.90;;;;;;4115836;28;20176;-73
2022/04/08 00:06:42;;;;;;;6.30;1.23;;;6.40;99.90;;;;;;4082067;29;20452;-72
2022/04/08 00:08:44;;;;;;;2.50;1.00;;;6.40;99.90;;;;;;4114332;28;20187;-71
2022/04/08 00:10:44;;;;;;;3.43;1.67;;;6.30;99.90;;;;;;4098079;29;20191;-73
2022/04/08 00:12:45;;;;;;;3.90;1.83;;;6.30;99.90;;;;;;4113459;28;20440;-72
2022/04/08 00:14:46;;;;;;;2.67;0.93;;;6.20;99.90;;;;;;4115562;28;20266;-73
2022/04/08 00:16:47;;;;;;;3.80;1.10;;;6.20;99.90;;;;;;4114863;28;20217;-73
2022/04/08 00:18:48;;;;;;;4.80;0.97;;;6.20;99.90;;;;;;4114233;28;20191;-72
2022/04/08 00:20:49;;;;;;;5.73;1.20;;;6.20;99.90;;;;;;4098000;29;20435;-72
2022/04/08 00:22:50;;;;;;;2.10;1.07;;;6.10;99.90;;;;;;4115422;28;20449;-72
2022/04/08 00:24:51;;;;;;;4.70;1.30;;;6.10;99.90;;;;;;4115359;28;20190;-72
2022/04/08 00:26:51;;;;;;;4.10;0.97;;;6.00;99.90;;;;;;4113452;28;20325;-72
2022/04/08 00:28:52;;;;;;;2.70;1.00;;;6.10;99.90;;;;;;4097889;29;20188;-72
2022/04/08 00:30:53;;;;;;;3.30;0.97;;;6.10;99.90;;;;;;4115242;28;20564;-73
2022/04/08 00:32:57;;;;;;;1.33;1.13;;;6.10;99.90;;;;;;4114966;28;20265;-72
2022/04/08 00:34:58;;;;;;;1.67;0.80;;;6.10;99.90;;;;;;4113995;28;20193;-72
2022/04/08 00:36:59;;;;;;;3.07;1.30;;;6.00;99.90;;;;;;4113622;28;20437;-73
2022/04/08 00:39:00;;;;;;;2.53;1.10;;;6.10;99.90;;;;;;4114472;28;20919;-73
2022/04/08 00:41:00;;;;;;;3.60;1.27;;;6.10;99.90;;;;;;4097827;29;20183;-73
2022/04/08 00:43:39;;;;;;;3.63;1.07;;;6.00;99.90;;;;;;4097746;29;20257;-73
2022/04/08 00:45:41;;;;;;;5.13;1.20;;;5.90;99.90;;;;;;4081733;29;20219;-73
2022/04/08 00:47:44;;;;;;;3.17;0.80;;;5.90;99.90;;;;;;4097689;29;20439;-72
2022/04/08 00:49:45;;;;;;;1.93;0.77;;;5.80;99.90;;;;;;4115015;28;20816;-72
2022/04/08 00:51:46;;;;;;;2.37;0.90;;;5.80;99.90;;;;;;4097722;29;20468;-72
2022/04/08 00:53:48;;;;;;;3.93;1.43;;;5.80;99.90;;;;;;4097547;29;20435;-72
2022/04/08 00:55:49;;;;;;;3.33;1.33;;;5.80;99.90;;;;;;4096969;29;20210;-72
2022/04/08 00:57:50;;;;;;;2.57;1.27;;;5.80;99.90;;;;;;4081619;29;20436;-74
2022/04/08 00:59:51;;;;;;;3.07;1.10;;;5.80;99.90;;;;;;4097283;29;20475;-73
2022/04/08 01:01:52;;;;;;;6.83;1.37;;;5.90;99.90;;;;;;4114854;28;20189;-73
2022/04/08 01:03:53;;;;;;;5.33;1.07;;;5.80;99.90;;;;;;4097636;29;20933;-73
2022/04/08 01:05:54;;;;;;;4.40;1.10;;;5.80;99.90;;;;;;4096745;29;20545;-74
2022/04/08 01:07:54;;;;;;;3.70;1.03;;;5.80;99.90;;;;;;4097566;29;20198;-74
2022/04/08 01:09:55;;;;;;;3.80;0.93;;;5.90;99.40;;;;;;4114604;28;20282;-74
2022/04/08 01:11:56;;;;;;;2.67;1.00;;;5.80;99.80;;;;;;4097305;28;20187;-73
2022/04/08 01:14:10;;;;;;;2.57;1.27;;;5.80;99.90;;;;;;4097430;29;20203;-73
2022/04/08 01:16:10;;;;;;;1.57;0.80;;;5.80;99.80;;;;;;4080676;29;20271;-73
2022/04/08 01:18:11;;;;;;;4.40;0.97;;;5.90;99.60;;;;;;4096875;29;20843;-73
2022/04/08 01:20:13;;;;;;;2.10;1.10;;;5.90;99.00;;;;;;4097182;29;20302;-74
2022/04/08 01:22:14;;;;;;;5.07;1.37;;;5.90;99.20;;;;;;4114455;28;20186;-74
2022/04/08 01:24:15;;;;;;;2.50;0.60;;;5.90;99.90;;;;;;4096735;28;20426;-74
2022/04/08 01:26:16;;;;;;;3.23;0.97;;;6.00;99.40;;;;;;4095888;29;20234;-73
2022/04/08 01:28:17;;;;;;;1.53;0.93;;;5.90;99.30;;;;;;4097163;29;20430;-74
2022/04/08 01:30:18;;;;;;;3.23;0.80;;;6.00;98.30;;;;;;4114485;28;20447;-73
2022/04/08 01:32:18;;;;;;;2.43;0.90;;;6.00;99.50;;;;;;4097206;29;20191;-73
2022/04/08 01:34:19;;;;;;;1.20;0.80;;;6.00;98.70;;;;;;4114363;28;20187;-74
2022/04/08 01:36:20;;;;;;;1.67;0.50;;;6.10;98.00;;;;;;4113348;28;20216;-73
2022/04/08 01:38:20;;;;;;;3.53;0.90;;;6.10;96.80;;;;;;4096842;29;20240;-74
2022/04/08 01:40:21;;;;;;;2.80;1.00;;;6.00;96.70;;;;;;4114113;28;20221;-74
2022/04/08 01:42:24;;;;;;;4.50;1.17;;;5.90;96.50;;;;;;4114026;28;20186;-73
2022/04/08 01:44:25;;;;;;;4.13;1.00;;;5.90;97.50;;;;;;4097130;28;20617;-73
2022/04/08 01:46:26;;;;;;;3.17;0.80;;;6.00;97.30;;;;;;4113592;28;20450;-73
2022/04/08 01:48:27;;;;;;;4.27;0.80;;;6.00;96.90;;;;;;4114158;28;20175;-73
2022/04/08 01:50:27;;;;;;;4.93;1.27;;;6.00;95.80;;;;;;4096919;29;20657;-74
2022/04/08 01:52:28;;;;;;;2.80;0.83;;;6.10;96.10;;;;;;4096766;29;20436;-73
2022/04/08 01:54:29;;;;;;;3.73;0.90;;;6.00;96.50;;;;;;4096818;29;20190;-73
2022/04/08 01:56:29;;;;;;;2.90;0.87;;;5.90;96.70;;;;;;4112242;28;20251;-73
2022/04/08 01:58:30;;;;;;;2.93;1.10;;;5.90;97.80;;;;;;4097015;29;20220;-73
2022/04/08 02:00:31;;;;;;;3.67;1.10;;;5.90;97.20;;;;;;4096919;29;20768;-73
2022/04/08 02:02:31;;;;;;;5.43;1.20;;;6.00;97.50;;;;;;4096729;29;20195;-73
2022/04/08 02:04:32;;;;;;;2.57;1.17;;;6.10;96.90;;;;;;4113688;28;20183;-73
2022/04/08 02:06:35;;;;;;;2.67;0.90;;;6.00;96.60;;;;;;4113276;28;20203;-73
2022/04/08 02:08:35;;;;;;;2.90;1.10;;;6.00;97.50;;;;;;4096585;28;20878;-74
2022/04/08 02:10:36;;;;;;;8.30;1.00;;;5.90;98.70;;;;;;4113804;28;20434;-73
2022/04/08 02:12:37;;;;;;;5.23;0.90;;;5.90;97.80;;;;;;4080610;29;20243;-73
2022/04/08 02:14:38;;;;;;;3.13;0.87;;;5.90;97.40;;;;;;4096525;29;20195;-73
2022/04/08 02:16:38;;;;;;;2.73;0.90;;;6.10;98.10;;;;;;4113251;28;20254;-74
2022/04/08 02:18:39;;;;;;;4.83;1.07;;;6.10;97.70;;;;;;4112405;28;20200;-73
2022/04/08 02:20:40;;;;;;;3.20;1.17;;;6.10;98.50;;;;;;4113703;28;20664;-74
2022/04/08 02:22:41;;;;;;;4.33;2.23;;;6.00;98.70;;;;;;4096305;29;20254;-73
2022/04/08 02:24:42;;;;;;;4.40;0.90;;;6.00;98.40;;;;;;4096529;29;20830;-74
2022/04/08 02:26:42;;;;;;;3.37;0.80;;;5.90;98.90;;;;;;4095941;29;20636;-73
2022/04/08 02:28:44;;;;;;;3.37;1.10;;;6.00;99.10;;;;;;4096627;29;20270;-73
2022/04/08 02:30:45;;;;;;;3.37;0.90;;;6.00;98.20;;;;;;4113826;28;20187;-72
2022/04/08 02:32:46;;;;;;;1.50;0.90;;;6.00;98.30;;;;;;4114146;28;20483;-73
2022/04/08 02:34:46;;;;;;;1.50;0.83;;;6.00;98.20;;;;;;4113273;28;20185;-73
2022/04/08 02:36:47;;;;;;;1.77;1.37;;;6.00;98.10;;;;;;4095553;28;20784;-73
2022/04/08 02:38:48;;;;;;;2.83;0.83;;;6.00;97.60;;;;;;4113601;28;20566;-73
2022/04/08 02:40:48;;;;;;;4.13;1.23;;;6.00;98.60;;;;;;4113795;28;20198;-73
2022/04/08 02:42:49;;;;;;;3.87;0.80;;;5.90;97.70;;;;;;4113799;28;20242;-73
2022/04/08 02:44:50;;;;;;;3.17;0.70;;;6.00;98.00;;;;;;4096225;29;20623;-73
2022/04/08 02:46:51;;;;;;;5.93;0.90;;;5.90;98.60;;;;;;4095696;29;20466;-73
2022/04/08 02:48:51;;;;;;;3.47;0.80;;;5.80;98.70;;;;;;4113508;28;20193;-73
2022/04/08 02:50:52;;;;;;;2.60;0.87;;;5.80;98.70;;;;;;4096253;29;20669;-73
2022/04/08 02:52:53;;;;;;;2.93;0.90;;;5.70;99.80;;;;;;4096073;29;20202;-73
2022/04/08 02:54:53;;;;;;;2.33;0.77;;;5.70;99.90;;;;;;4096017;29;20180;-73
2022/04/08 02:56:54;;;;;;;4.50;0.87;;;5.60;99.90;;;;;;4095567;29;20225;-73
2022/04/08 02:58:57;;;;;;;3.53;0.77;;;5.60;99.90;;;;;;4113279;28;20192;-73
2022/04/08 03:01:00;;;;;;;4.43;1.93;;;5.60;99.90;;;;;;4096351;28;20214;-74
2022/04/08 03:03:01;;;;;;;3.40;0.93;;;5.60;99.90;;;;;;4096158;28;20883;-73
2022/04/08 03:05:06;;;;;;;1.07;0.67;;;5.50;99.90;;;;;;4095219;29;20465;-73
2022/04/08 03:07:06;;;;;;;1.80;1.00;;;5.40;99.90;;;;;;4113351;28;20174;-74
2022/04/08 03:09:07;;;;;;;5.27;1.70;;;5.40;99.90;;;;;;4096041;29;20433;-74
2022/04/08 03:11:08;;;;;;;1.90;0.90;;;5.40;99.90;;;;;;4113141;28;20244;-74
2022/04/08 03:13:08;;;;;;;2.87;0.70;;;5.40;99.90;;;;;;4113136;28;20183;-73
2022/04/08 03:15:10;;;;;;;2.67;0.90;;;5.40;99.90;;;;;;4095508;28;20238;-74
2022/04/08 03:17:11;;;;;;;4.63;1.10;;;5.30;99.90;;;;;;4096035;28;20207;-74
2022/04/08 03:19:12;;;;;;;2.30;0.90;;;5.30;99.90;;;;;;4095846;29;20844;-75
2022/04/08 03:21:12;;;;;;;2.53;0.87;;;5.20;99.90;;;;;;4113201;28;20591;-75
2022/04/08 03:23:13;;;;;;;1.30;0.67;;;5.00;99.90;;;;;;4113237;28;20206;-75
2022/04/08 03:25:14;;;;;;;3.03;1.17;;;5.10;99.90;;;;;;4113134;28;20228;-74
2022/04/08 03:27:16;;;;;;;1.10;0.90;;;5.20;99.90;;;;;;4113734;28;20226;-74
2022/04/08 03:29:16;;;;;;;3.73;1.30;;;5.10;99.90;;;;;;4096283;29;20214;-74
2022/04/08 03:31:17;;;;;;;2.60;1.60;;;5.30;99.90;;;;;;4096082;29;20422;-74
2022/04/08 03:33:17;;;;;;;2.97;0.80;;;5.20;99.90;;;;;;4113130;28;20256;-74
2022/04/08 03:35:18;;;;;;;4.10;1.20;;;5.10;99.90;;;;;;4095249;28;20249;-74
2022/04/08 03:37:19;;;;;;;2.13;1.00;;;5.00;99.90;;;;;;4113183;28;20190;-74
2022/04/08 03:39:20;;;;;;;2.73;1.07;;;5.10;99.90;;;;;;4112923;28;20209;-74
2022/04/08 03:41:20;;;;;;;3.17;1.30;;;5.10;99.90;;;;;;4095808;29;20201;-73
2022/04/08 03:43:21;;;;;;;3.07;1.07;;;5.00;99.90;;;;;;4095937;29;20436;-73
2022/04/08 03:45:22;;;;;;;2.87;1.63;;;5.00;99.90;;;;;;4095123;29;20202;-72
2022/04/08 03:47:23;;;;;;;3.13;1.80;;;4.90;99.90;;;;;;4095827;28;20187;-74
2022/04/08 03:49:26;;;;;;;4.87;0.90;;;4.90;99.90;;;;;;4115724;28;20442;-73
2022/04/08 03:51:27;;;;;;;1.47;0.97;;;4.90;99.90;;;;;;4115824;28;20566;-74
2022/04/08 03:53:28;;;;;;;2.77;0.80;;;4.90;99.90;;;;;;4098807;29;20434;-74
2022/04/08 03:55:28;;;;;;;2.03;0.90;;;4.90;99.90;;;;;;4082214;29;20202;-74
2022/04/08 03:57:29;;;;;;;1.20;0.70;;;4.90;99.90;;;;;;4098712;29;20209;-74
2022/04/08 03:59:30;;;;;;;4.30;1.00;;;4.90;99.90;;;;;;4098592;29;20270;-74
2022/04/08 04:01:31;;;;;;;2.40;0.97;;;4.90;99.90;;;;;;4098845;29;20197;-75
2022/04/08 04:03:31;;;;;;;1.77;1.10;;;4.90;99.90;;;;;;4098499;29;20189;-74
2022/04/08 04:05:35;;;;;;;1.53;0.70;;;4.90;99.90;;;;;;4097591;29;20297;-74
2022/04/08 04:07:36;;;;;;;2.70;0.80;;;4.90;99.90;;;;;;4115586;28;20182;-74
2022/04/08 04:09:36;;;;;;;2.60;0.70;;;5.00;99.90;;;;;;4098260;29;20451;-74
2022/04/08 04:11:37;;;;;;;2.27;0.97;;;5.00;99.90;;;;;;4098218;29;20235;-74
2022/04/08 04:13:37;;;;;;;3.13;1.33;;;5.00;99.90;;;;;;4098242;29;20194;-74
2022/04/08 04:15:38;;;;;;;3.33;0.93;;;5.00;99.90;;;;;;4114747;28;20229;-74
2022/04/08 04:17:39;;;;;;;4.30;0.73;;;5.00;99.90;;;;;;4098169;29;20290;-74
2022/04/08 04:19:40;;;;;;;3.23;1.00;;;5.00;99.90;;;;;;4098430;29;20688;-73
2022/04/08 04:21:40;;;;;;;0.70;0.60;;;5.00;99.90;;;;;;4098507;29;20771;-74
2022/04/08 04:23:41;;;;;;;1.80;0.70;;;5.10;99.90;;;;;;4115406;28;20202;-74
2022/04/08 04:25:42;;;;;;;0.87;0.70;;;5.10;99.90;;;;;;4114890;28;20707;-74
2022/04/08 04:27:42;;;;;;;1.10;0.70;;;5.10;99.90;;;;;;4098146;29;20190;-74
2022/04/08 04:29:43;;;;;;;2.63;0.80;;;5.20;99.90;;;;;;4097534;28;20286;-74
2022/04/08 04:31:44;;;;;;;0.80;0.80;;;5.10;99.90;;;;;;4097931;29;20189;-74
2022/04/08 04:33:44;;;;;;;1.97;0.70;;;5.20;99.90;;;;;;4115266;28;20612;-74
2022/04/08 04:35:45;;;;;;;2.17;1.07;;;5.30;99.90;;;;;;4114615;28;20210;-73
2022/04/08 04:37:46;;;;;;;0.87;0.70;;;5.40;99.90;;;;;;4113964;28;20180;-74
2022/04/08 04:39:46;;;;;;;0.93;0.70;;;5.50;99.90;;;;;;4097794;29;20215;-74
2022/04/08 04:41:47;;;;;;;1.40;0.80;;;5.40;99.90;;;;;;4097878;29;20246;-74
2022/04/08 04:43:48;;;;;;;1.47;0.90;;;5.30;99.90;;;;;;4115082;28;20182;-74
2022/04/08 04:45:48;;;;;;;2.20;0.90;;;5.40;99.90;;;;;;4097662;29;20207;-74
2022/04/08 04:47:49;;;;;;;1.97;0.80;;;5.40;99.90;;;;;;4097947;29;20274;-74
2022/04/08 04:49:50;;;;;;;0.97;0.80;;;5.30;99.90;;;;;;4114988;28;20554;-74
2022/04/08 04:51:51;;;;;;;0.80;0.70;;;5.30;99.90;;;;;;4113727;28;20190;-74
2022/04/08 04:53:52;;;;;;;1.00;0.63;;;5.40;99.90;;;;;;4098050;29;20181;-75
2022/04/08 04:55:54;;;;;;;1.70;0.80;;;5.40;99.90;;;;;;4114125;28;20453;-74
2022/04/08 04:57:56;;;;;;;6.97;0.80;;;5.30;99.90;;;;;;4097685;28;20195;-74
2022/04/08 04:59:57;;;;;;;0.90;0.70;;;5.30;99.90;;;;;;4081358;29;20486;-74
2022/04/08 05:01:57;;;;;;;1.03;0.80;;;5.40;99.90;;;;;;4097563;29;21113;-74
2022/04/08 05:03:58;;;;;;;2.10;1.10;;;5.50;99.90;;;;;;4097496;29;20187;-74
2022/04/08 05:05:59;;;;;;;5.00;1.20;;;5.60;99.90;;;;;;4096710;28;20208;-74
2022/04/08 05:08:07;;;;;;;1.47;0.80;;;5.60;99.90;;;;;;4114750;28;20224;-74
2022/04/08 05:10:08;;;;;;;1.47;0.73;;;5.60;99.90;;;;;;4113499;28;20558;-74
2022/04/08 05:12:09;;;;;;;0.70;0.70;;;5.40;99.90;;;;;;4113411;28;20834;-74
2022/04/08 05:14:10;;;;;;;1.60;0.80;;;5.50;99.90;;;;;;4114747;28;20431;-73
2022/04/08 05:16:10;;;;;;;0.70;0.70;;;5.60;99.90;;;;;;4112748;28;20467;-74
2022/04/08 05:18:14;;;;;;;0.53;0.53;;;5.60;99.90;;;;;;4081563;29;20218;-74
2022/04/08 05:20:15;;;;;;;1.17;0.60;;;5.70;99.90;;;;;;4097407;29;20713;-74
2022/04/08 05:22:16;;;;;;;0.70;0.70;;;5.90;99.90;;;;;;4097287;29;20418;-75
2022/04/08 05:24:17;;;;;;;0.83;0.70;;;5.90;99.90;;;;;;4114719;28;20271;-75
2022/04/08 05:26:18;;;;;;;1.23;0.90;;;5.80;99.90;;;;;;4096399;29;20450;-73
2022/04/08 05:28:19;;;;;;;0.53;0.53;;;5.90;99.90;;;;;;4114607;28;20182;-74
2022/04/08 05:30:20;;;;;;;1.33;0.60;;;5.90;99.90;;;;;;4113480;28;20424;-74
2022/04/08 05:32:21;;;;;;;1.27;0.70;;;6.10;99.90;;;;;;4114623;28;20270;-74
2022/04/08 05:34:22;;;;;;;0.73;0.53;;;5.80;99.90;;;;;;4114501;28;20473;-74
2022/04/08 05:36:22;;;;;;;1.83;1.20;;;6.00;99.90;;;;;;4112786;28;20203;-74
2022/04/08 05:38:23;;;;;;;0.60;0.50;;;6.00;99.90;;;;;;4097085;29;20561;-73
2022/04/08 05:40:24;;;;;;;2.57;0.90;;;6.30;99.90;;;;;;4081141;29;20263;-73
2022/04/08 05:42:24;;;;;;;0.90;0.60;;;6.30;99.90;;;;;;4096943;29;20193;-74
2022/04/08 05:44:25;;;;;;;0.90;0.70;;;6.30;99.90;;;;;;4114156;28;20182;-75
2022/04/08 05:46:26;;;;;;;1.27;0.80;;;6.30;99.90;;;;;;4096368;29;20612;-74
2022/04/08 05:48:26;;;;;;;1.60;1.27;;;6.30;99.90;;;;;;4096822;29;20183;-75
2022/04/08 05:50:27;;;;;;;1.37;0.80;;;6.10;99.90;;;;;;4096955;29;20195;-74
2022/04/08 05:52:28;;;;;;;0.50;0.50;;;6.20;99.90;;;;;;4114071;28;20200;-74
2022/04/08 05:54:28;;;;;;;1.17;0.60;;;6.20;99.90;;;;;;4112782;28;20192;-74
2022/04/08 05:56:29;;;;;;;0.50;0.50;;;6.10;99.90;;;;;;4113375;28;20297;-74
2022/04/08 05:58:31;;;;;;;6.70;1.00;;;6.10;99.90;;;;;;4096705;29;20195;-74
2022/04/08 06:00:34;;;;;;;2.70;1.33;;;6.30;99.90;;;;;;4080556;29;20206;-74
2022/04/08 06:02:34;;;;;;;0.83;0.60;;;6.20;99.90;;;;;;4113885;28;20429;-74
2022/04/08 06:04:35;;;;;;;0.50;0.50;;;6.20;99.90;;;;;;4096410;29;20947;-74
2022/04/08 06:06:38;;;;;;;0.87;0.60;;;6.10;99.90;;;;;;4096276;29;20632;-74
2022/04/08 06:08:39;;;;;;;2.50;0.90;;;6.00;99.90;;;;;;4114000;28;20193;-74
2022/04/08 06:10:40;;;;;;;0.60;0.60;;;6.00;99.90;;;;;;4113382;28;20513;-74
2022/04/08 06:12:40;;;;;;;0.80;0.60;;;6.00;99.90;;;;;;4096869;29;20198;-74
2022/04/08 06:14:41;;;;;;;0.63;0.60;;;6.00;99.90;;;;;;4113718;28;20182;-74
2022/04/08 06:16:42;;;;;;;0.97;0.60;;;6.10;99.90;;;;;;4112832;28;20248;-74
2022/04/08 06:18:43;;;;;;;0.80;0.60;;;6.20;99.90;;;;;;4111580;28;20213;-74
2022/04/08 06:20:44;;;;;;;0.80;0.53;;;6.10;99.90;;;;;;4080372;29;20554;-74
2022/04/08 06:22:47;;;;;;;0.97;0.60;;;5.90;99.90;;;;;;4112325;28;20186;-74
2022/04/08 06:24:48;;;;;;;1.83;0.50;;;5.90;99.90;;;;;;4112429;28;20417;-73
2022/04/08 06:26:49;;;;;;;1.23;0.77;;;6.00;99.90;;;;;;4112520;28;21065;-74
2022/04/08 06:28:50;;;;;;;0.50;0.40;;;6.00;99.90;;;;;;4113269;28;20692;-73
2022/04/08 06:30:51;;;;;;;1.23;0.40;;;6.10;99.90;;;;;;4096396;29;20190;-74
2022/04/08 06:32:51;;;;;;;1.33;0.40;;;6.10;99.90;;;;;;4112484;28;20433;-74
2022/04/08 06:34:52;;;;;;;0.43;0.43;;;6.10;99.90;;;;;;4113806;28;20261;-74
2022/04/08 06:36:53;;;;;;;0.47;0.47;;;6.20;99.90;;;;;;4112778;28;20189;-74
2022/04/08 06:38:54;;;;;;;1.53;0.50;;;6.10;99.90;;;;;;4096473;29;20210;-75
2022/04/08 06:40:54;;;;;;;0.50;0.43;;;6.20;99.90;;;;;;4096319;28;20195;-74
2022/04/08 06:42:59;;;;;;;0.50;0.40;;;6.30;99.90;;;;;;4113408;28;20970;-75
2022/04/08 06:45:00;;;;;;;1.53;0.47;;;6.20;99.90;;;;;;4113069;28;20688;-73
2022/04/08 06:47:00;;;;;;;0.40;0.40;;;6.40;99.90;;;;;;4112100;28;20429;-73
2022/04/08 06:49:02;;;;;;;0.70;0.40;;;6.70;99.90;;;;;;4096285;29;21241;-73
2022/04/08 06:51:06;;;;;;;0.40;0.40;;;6.60;99.90;;;;;;4096225;28;20184;-74
2022/04/08 06:53:07;;;;;;;0.47;0.47;;;6.50;99.90;;;;;;4113517;28;21066;-74
2022/04/08 06:55:09;;;;;;;0.40;0.30;;;6.50;99.90;;;;;;4112941;28;20509;-74
2022/04/08 06:57:10;;;;;;;0.53;0.30;;;6.50;99.90;;;;;;4096328;28;20194;-74
2022/04/08 06:59:11;;;;;;;0.80;0.37;;;6.60;99.90;;;;;;4113037;28;20572;-75
2022/04/08 07:01:11;;;;;;;0.70;0.63;;;6.60;99.90;;;;;;4113430;28;20195;-74
2022/04/08 07:03:12;;;;;;;0.50;0.50;;;6.60;99.90;;;;;;4112082;28;20261;-75
2022/04/08 07:05:13;;;;;;;0.47;0.30;;;6.70;99.90;;;;;;4112897;28;20203;-74
2022/04/08 07:07:13;;;;;;;1.07;0.50;;;6.80;99.90;;;;;;4112122;28;20186;-74
2022/04/08 07:09:14;;;;;;;0.40;0.40;;;6.90;99.90;;;;;;4096224;28;20195;-74
2022/04/08 07:11:15;;;;;;;0.37;0.37;;;7.10;99.90;;;;;;4113365;28;20193;-74
2022/04/08 07:13:15;;;;;;;0.47;0.30;;;7.00;99.90;;;;;;4111924;28;20258;-74
2022/04/08 07:15:16;;;;;;;0.50;0.50;;;6.90;99.90;;;;;;4112498;28;20209;-74
2022/04/08 07:17:17;;;;;;;0.43;0.40;;;6.80;99.90;;;;;;4112015;28;20278;-75
2022/04/08 07:19:17;;;;;;;0.30;0.30;;;6.90;99.90;;;;;;4111795;28;20708;-75
2022/04/08 07:21:18;;;;;;;0.70;0.40;;;6.90;99.90;;;;;;4096046;29;20290;-75
2022/04/08 07:23:19;;;;;;;0.67;0.40;;;7.00;99.90;;;;;;4096996;28;20191;-75
2022/04/08 07:25:20;;;;;;;0.40;0.40;;;6.80;99.90;;;;;;4098370;29;20399;-74
2022/04/08 07:27:21;;;;;;;0.50;0.50;;;7.00;99.90;;;;;;4099098;29;20582;-75
2022/04/08 07:29:22;;;;;;;0.50;0.40;;;7.20;99.90;;;;;;4099062;29;20191;-74
2022/04/08 07:31:22;;;;;;;0.40;0.40;;;7.30;99.90;;;;;;4114830;28;21077;-74
2022/04/08 07:33:23;;;;;;;1.00;0.50;;;7.30;98.20;;;;;;4116330;28;20654;-74
2022/04/08 07:35:33;;;;;;;0.90;0.87;;;7.40;99.50;;;;;;4115595;28;20206;-74
2022/04/08 07:37:34;;;;;;;0.47;0.43;;;7.30;99.70;;;;;;4116297;28;20664;-73
2022/04/08 07:39:37;;;;;;;1.43;0.40;;;7.30;99.90;;;;;;4114791;28;20481;-74
2022/04/08 07:41:37;;;;;;;1.10;0.50;;;7.20;99.90;;;;;;4098943;28;20398;-74
2022/04/08 07:43:38;;;;;;;0.83;0.60;;;7.20;99.90;;;;;;4116160;28;20469;-74
2022/04/08 07:45:38;;;;;;;1.70;0.63;;;7.10;99.90;;;;;;4114196;28;20221;-74
2022/04/08 07:47:39;;;;;;;1.13;0.70;;;7.20;99.90;;;;;;4098740;28;20210;-74
2022/04/08 07:49:41;;;;;;;1.10;0.80;;;7.30;99.90;;;;;;4113663;28;20193;-73
2022/04/08 07:51:42;;;;;;;1.77;1.63;;;7.60;99.90;;;;;;4109163;28;20302;-73
2022/04/08 07:53:42;;;;;;;1.70;1.60;;;7.80;99.90;;;;;;4109720;28;20940;-73
2022/04/08 07:55:43;;;;;;;0.97;0.80;;;7.50;99.90;;;;;;4112032;28;20598;-71
2022/04/08 07:57:46;;;;;;;2.50;1.40;;;7.60;99.90;;;;;;4115411;28;20720;-73
2022/04/08 07:59:47;;;;;;;2.07;1.87;;;7.60;99.90;;;;;;4113995;28;20622;-73
2022/04/08 08:01:48;;;;;;;2.43;1.40;;;7.60;99.90;;;;;;4098128;29;20431;-71
2022/04/08 08:03:49;;;;;;;1.33;1.10;;;7.50;99.90;;;;;;4115197;28;20504;-70
2022/04/08 08:05:52;;;;;;;1.33;1.00;;;7.50;99.90;;;;;;4097277;29;20203;-70
2022/04/08 08:07:57;;;;;;;1.80;0.70;;;7.70;99.90;;;;;;4115235;28;20245;-70
2022/04/08 08:09:57;;;;;;;1.10;0.80;;;7.60;99.90;;;;;;4098144;29;20814;-70
2022/04/08 08:11:58;;;;;;;0.83;0.70;;;7.80;99.90;;;;;;4115303;28;20434;-69
2022/04/08 08:13:58;;;;;;;1.23;1.13;;;7.70;99.90;;;;;;4119256;28;20246;-68
2022/04/08 08:15:59;;;;;;;0.60;0.53;;;8.00;99.90;;;;;;4121134;28;20221;-70
2022/04/08 08:18:00;;;;;;;0.73;0.50;;;8.00;99.90;;;;;;4118197;28;20221;-68
2022/04/08 08:20:01;;;;;;;1.73;0.83;;;7.80;99.90;;;;;;4123875;28;20238;-71
2022/04/08 08:22:02;;;;;;;0.50;0.50;;;8.00;99.90;;;;;;4127646;28;20714;-70
2022/04/08 08:24:03;;;;;;;0.83;0.70;;;8.20;99.90;;;;;;4099259;28;20227;-72
2022/04/08 08:26:03;;;;;;;0.70;0.70;;;8.10;99.90;;;;;;4112940;28;20498;-69
2022/04/08 08:28:04;;;;;;;0.30;0.30;;;8.20;99.90;;;;;;4114870;28;20805;-69
2022/04/08 08:30:07;;;;;;;0.80;0.40;;;8.30;99.90;;;;;;4090001;29;20195;-69
2022/04/08 08:32:08;;;;;;;0.80;0.77;;;8.20;99.90;;;;;;4121702;28;20205;-69
2022/04/08 08:34:09;;;;;;;1.00;0.50;;;8.30;99.90;;;;;;4126025;28;21020;-72
2022/04/08 08:36:10;;;;;;;0.43;0.40;;;8.30;99.90;;;;;;4123477;28;20245;-69
2022/04/08 08:38:10;;;;;;;0.73;0.50;;;8.20;99.90;;;;;;4126771;28;20679;-68
2022/04/08 08:40:13;;;;;;;0.67;0.40;;;8.20;99.90;;;;;;4101101;28;20234;-68
2022/04/08 08:42:13;;;;;;;0.73;0.50;;;8.10;99.90;;;;;;4108967;28;20186;-69
2022/04/08 08:44:14;;;;;;;0.80;0.60;;;8.10;99.90;;;;;;4101373;28;20880;-70
2022/04/08 08:46:17;;;;;;;0.50;0.50;;;8.10;99.90;;;;;;4124096;28;20287;-68
2022/04/08 08:48:18;;;;;;;0.43;0.43;;;8.00;99.90;;;;;;4119021;28;20183;-72
2022/04/08 08:50:19;;;;;;;2.10;1.57;;;8.10;99.90;;;;;;4108323;28;21005;-69
2022/04/08 08:52:20;;;;;;;0.83;0.67;;;8.10;99.90;;;;;;4110764;28;20434;-71
2022/04/08 08:54:20;;;;;;;8.83;5.53;;;8.20;99.90;;;;;;4122372;28;20220;-69
2022/04/08 08:56:21;;;;;;;8.23;4.47;;;8.30;99.90;;;;;;4112422;28;20250;-71
2022/04/08 08:58:23;;;;;;;0.50;0.50;;;8.30;99.90;;;;;;4102180;28;20681;-69
2022/04/08 09:00:24;;;;;;;1.37;0.80;;;8.50;99.90;;;;;;4107627;28;20765;-68
2022/04/08 09:02:24;;;;;;;0.40;0.40;;;8.50;99.90;;;;;;4120267;28;20210;-71
2022/04/08 09:04:26;;;;;;;0.87;0.80;;;8.50;99.90;;;;;;4124471;28;20182;-68
2022/04/08 09:06:26;;;;;;;0.97;0.73;;;8.60;99.90;;;;;;4102251;28;20251;-72
2022/04/08 09:08:33;;;;;;;0.50;0.50;;;8.50;99.90;;;;;;4106805;28;20425;-74
2022/04/08 09:10:46;;;;;;;1.10;0.87;;;8.80;99.90;;;;;;4103793;28;20548;-68
2022/04/08 09:12:54;;;;;;;0.50;0.50;;;8.90;99.90;;;;;;4121509;28;20992;-70
2022/04/08 09:14:58;;;;;;;1.00;0.70;;;8.70;99.90;;;;;;4106502;28;20184;-72
2022/04/08 09:17:02;;;;;;;0.90;0.80;;;8.80;99.90;;;;;;4102190;28;20451;-69
2022/04/08 09:19:14;;;;;;;0.60;0.60;;;8.70;99.90;;;;;;4124684;28;21138;-69
2022/04/08 09:21:25;;;;;;;0.53;0.40;;;8.50;99.90;;;;;;4100187;28;20245;-69
2022/04/08 09:23:33;;;;;;;0.50;0.50;;;8.70;99.90;;;;;;4127768;28;20429;-72
2022/04/08 09:25:34;;;;;;;0.30;0.30;;;8.70;99.90;;;;;;4097639;28;20451;-74
2022/04/08 09:27:38;;;;;;;2.03;0.90;;;8.70;99.90;;;;;;4112460;28;20445;-68
2022/04/08 09:29:43;;;;;;;1.83;0.90;;;8.60;99.90;;;;;;4097032;28;20780;-69
2022/04/08 09:31:49;;;;;;;0.33;0.33;;;8.70;99.90;;;;;;4112150;28;20442;-69
2022/04/08 09:33:53;;;;;;;0.60;0.60;;;9.10;99.90;;;;;;4096856;28;20263;-76
2022/04/08 09:35:56;;;;;;;0.80;0.80;;;9.20;99.90;;;;;;4111354;28;20199;-67
2022/04/08 09:38:01;;;;;;;0.80;0.77;;;9.10;99.90;;;;;;4115862;28;20439;-69
2022/04/08 09:40:05;;;;;;;0.77;0.63;;;9.10;99.90;;;;;;4128494;28;20488;-69
2022/04/08 09:42:06;;;;;;;0.63;0.60;;;8.80;99.90;;;;;;4117808;28;20425;-69
2022/04/08 09:44:10;;;;;;;0.60;0.60;;;8.80;99.90;;;;;;4126692;28;20457;-68
2022/04/08 09:46:29;;;;;;;1.00;0.90;;;9.00;99.90;;;;;;4116248;28;20446;-68
2022/04/08 09:48:30;;;;;;;0.70;0.70;;;8.90;99.90;;;;;;4123506;28;20427;-68
2022/04/08 09:50:31;;;;;;;0.63;0.50;;;9.10;99.90;;;;;;4120169;28;20194;-70
2022/04/08 09:52:32;;;;;;;0.80;0.80;;;8.80;99.90;;;;;;4123122;28;20193;-72
2022/04/08 09:54:35;;;;;;;0.70;0.70;;;8.80;99.90;;;;;;4098735;28;20205;-71
2022/04/08 09:56:37;;;;;;;1.37;0.97;;;8.70;99.90;;;;;;4095838;28;20450;-69
2022/04/08 09:58:42;;;;;;;0.30;0.30;;;8.80;99.90;;;;;;4103712;28;20398;-71
2022/04/08 10:00:45;;;;;;;0.37;0.30;;;8.90;99.90;;;;;;4104000;28;20976;-70
2022/04/08 10:02:49;;;;;;;0.77;0.50;;;8.90;99.90;;;;;;4106470;28;20613;-70
2022/04/08 10:04:52;;;;;;;0.77;0.70;;;9.10;99.90;;;;;;4121471;28;20186;-66
2022/04/08 10:06:53;;;;;;;0.30;0.30;;;9.10;99.90;;;;;;4085088;29;20216;-69
2022/04/08 10:08:54;;;;;;;0.30;0.30;;;9.10;99.90;;;;;;4104072;28;20192;-68
2022/04/08 10:11:09;;;;;;;0.20;0.20;;;9.20;99.90;;;;;;4117558;28;20682;-71
2022/04/08 10:13:49;;;;;;;1.17;0.60;;;9.10;99.90;;;;;;4117178;28;20610;-70
2022/04/08 10:16:19;;;;;;;2.83;0.60;;;9.30;99.90;;;;;;4098666;28;20218;-69
2022/04/08 10:18:20;;;;;;;0.90;0.60;;;9.60;99.90;;;;;;4112625;28;20555;-69
2022/04/08 10:20:59;;;;;;;1.23;0.50;;;9.50;99.90;;;;;;4237396;27;20546;-70
2022/04/08 10:23:19;;;;;;;1.33;0.47;;;9.40;99.90;;;;;;4221484;28;20276;-70
2022/04/08 10:25:22;;;;;;;0.70;0.37;;;9.50;99.90;;;;;;4212156;28;20218;-69
2022/04/08 10:27:35;;;;;;;0.80;0.63;;;9.50;99.90;;;;;;4224174;28;20224;-69
2022/04/08 10:29:36;;;;;;;1.07;0.67;;;9.50;99.90;;;;;;4210557;28;20185;-70
2022/04/08 10:31:37;;;;;;;1.20;0.60;;;9.40;99.90;;;;;;4225756;28;20194;-71
2022/04/08 10:33:47;;;;;;;0.47;0.40;;;9.50;99.90;;;;;;4228055;28;20183;-70
2022/04/08 10:35:59;;;;;;;0.60;0.60;;;9.50;99.90;;;;;;4209202;28;20263;-69
2022/04/08 10:38:06;;;;;;;1.03;0.40;;;9.40;99.90;;;;;;4211865;28;20185;-70
2022/04/08 10:40:10;;;;;;;0.70;0.60;;;9.50;99.90;;;;;;4209378;28;20206;-70
2022/04/08 10:42:22;;;;;;;0.90;0.60;;;9.60;99.90;;;;;;4209508;28;20266;-70
2022/04/08 10:44:41;;;;;;;0.73;0.60;;;9.50;99.90;;;;;;4213882;28;20246;-69